createdAt,value
2022-12-17T00:01:43.715Z,38.01
2022-12-17T00:04:10.124Z,37.98
2022-12-17T00:06:36.448Z,37.97
2022-12-17T00:09:02.795Z,37.98
2022-12-17T00:11:29.181Z,38.00
2022-12-17T00:13:55.526Z,38.04
2022-12-17T00:16:22.014Z,38.05
2022-12-17T00:18:48.279Z,38.06
2022-12-17T00:21:14.656Z,38.10
2022-12-17T00:23:40.997Z,38.21
2022-12-17T00:26:07.384Z,38.08
2022-12-17T00:28:33.738Z,38.08
2022-12-17T00:31:00.198Z,38.06
2022-12-17T00:33:26.478Z,38.07
2022-12-17T00:35:52.902Z,38.16
2022-12-17T00:38:19.238Z,38.18
2022-12-17T00:40:45.622Z,38.20
2022-12-17T00:43:11.967Z,38.10
2022-12-17T00:45:38.357Z,38.09
2022-12-17T00:48:04.710Z,38.19
2022-12-17T00:50:33.503Z,38.19
2022-12-17T00:52:59.842Z,38.22
2022-12-17T00:55:26.259Z,38.21
2022-12-17T00:57:52.596Z,38.21
2022-12-17T01:00:18.987Z,38.20
2022-12-17T01:02:45.479Z,38.21
2022-12-17T01:05:11.758Z,38.26
2022-12-17T01:07:38.099Z,38.30
2022-12-17T01:10:04.486Z,38.22
2022-12-17T01:12:30.838Z,38.25
2022-12-17T01:14:57.214Z,38.36
2022-12-17T01:17:23.554Z,38.28
2022-12-17T01:19:49.938Z,38.29
2022-12-17T01:22:17.473Z,38.29
2022-12-17T01:24:42.683Z,38.30
2022-12-17T01:27:09.026Z,38.33
2022-12-17T01:29:35.418Z,38.33
2022-12-17T01:32:01.799Z,38.33
2022-12-17T01:34:28.176Z,38.33
2022-12-17T01:36:54.587Z,38.36
2022-12-17T01:39:20.997Z,38.44
2022-12-17T01:41:48.568Z,38.52
2022-12-17T01:44:13.762Z,38.49
2022-12-17T01:46:40.104Z,38.49
2022-12-17T01:49:07.741Z,38.47
2022-12-17T01:51:32.846Z,38.45
2022-12-17T01:53:59.229Z,38.43
2022-12-17T01:56:25.569Z,38.46
2022-12-17T01:58:51.959Z,38.39
2022-12-17T02:01:18.402Z,38.46
2022-12-17T02:03:44.690Z,38.48
2022-12-17T02:06:11.035Z,38.47
2022-12-17T02:08:37.426Z,38.49
2022-12-17T02:11:03.768Z,38.47
2022-12-17T02:13:30.162Z,38.45
2022-12-17T02:15:56.526Z,38.46
2022-12-17T02:18:22.950Z,38.51
2022-12-17T02:20:49.266Z,38.43
2022-12-17T02:23:15.662Z,38.49
2022-12-17T02:25:42.061Z,38.47
2022-12-17T02:28:08.454Z,38.53
2022-12-17T02:30:34.804Z,38.51
2022-12-17T02:33:01.191Z,38.46
2022-12-17T02:35:27.534Z,38.49
2022-12-17T02:37:53.952Z,38.50
2022-12-17T02:40:20.298Z,38.53
2022-12-17T02:42:46.705Z,38.54
2022-12-17T02:45:13.049Z,38.51
2022-12-17T02:47:39.430Z,38.54
2022-12-17T02:52:51.087Z,38.53
2022-12-17T02:55:17.436Z,38.55
2022-12-17T02:57:44.656Z,38.54
2022-12-17T03:00:10.181Z,38.54
2022-12-17T03:02:36.781Z,38.54
2022-12-17T03:05:15.238Z,38.54
2022-12-17T03:07:29.327Z,38.56
2022-12-17T03:09:55.663Z,38.56
2022-12-17T03:12:22.050Z,38.54
2022-12-17T03:14:48.399Z,38.52
2022-12-17T03:17:14.852Z,38.54
2022-12-17T03:19:41.152Z,38.49
2022-12-17T03:22:07.571Z,38.48
2022-12-17T03:24:33.910Z,38.50
2022-12-17T03:27:00.290Z,38.52
2022-12-17T03:29:26.636Z,38.47
2022-12-17T03:31:53.029Z,38.49
2022-12-17T03:34:19.373Z,38.48
2022-12-17T03:36:45.761Z,38.48
2022-12-17T03:39:12.104Z,38.48
2022-12-17T03:41:38.494Z,38.50
2022-12-17T03:44:04.838Z,38.47
2022-12-17T03:46:31.352Z,38.47
2022-12-17T03:48:57.570Z,38.47
2022-12-17T03:51:23.953Z,38.57
2022-12-17T03:53:50.298Z,38.57
2022-12-17T03:56:16.719Z,38.57
2022-12-17T03:58:43.065Z,38.56
2022-12-17T04:01:09.513Z,38.62
2022-12-17T04:03:36.303Z,38.56
2022-12-17T04:06:02.267Z,38.58
2022-12-17T04:08:28.602Z,38.61
2022-12-17T04:10:54.999Z,38.62
2022-12-17T04:13:21.387Z,38.57
2022-12-17T04:15:47.742Z,38.60
2022-12-17T04:18:14.094Z,38.60
2022-12-17T04:20:40.479Z,38.64
2022-12-17T04:23:06.820Z,38.65
2022-12-17T04:25:33.206Z,38.60
2022-12-17T04:27:59.578Z,38.61
2022-12-17T04:30:26.057Z,38.65
2022-12-17T04:32:52.395Z,38.67
2022-12-17T04:35:18.780Z,38.69
2022-12-17T04:37:45.124Z,38.68
2022-12-17T04:40:11.521Z,38.71
2022-12-17T04:42:37.867Z,38.81
2022-12-17T04:45:04.254Z,38.80
2022-12-17T04:47:30.594Z,38.83
2022-12-17T04:49:57.004Z,38.88
2022-12-17T04:52:23.348Z,38.83
2022-12-17T04:54:49.772Z,38.82
2022-12-17T04:57:16.080Z,38.83
2022-12-17T04:59:42.475Z,38.81
2022-12-17T05:02:08.927Z,38.85
2022-12-17T05:04:35.232Z,38.84
2022-12-17T05:07:01.560Z,38.85
2022-12-17T05:09:27.947Z,38.84
2022-12-17T05:11:54.295Z,38.90
2022-12-17T05:14:20.678Z,38.87
2022-12-17T05:16:47.056Z,38.88
2022-12-17T05:19:13.444Z,38.90
2022-12-17T05:21:39.786Z,38.94
2022-12-17T05:24:06.172Z,38.95
2022-12-17T05:26:32.517Z,38.93
2022-12-17T05:28:58.911Z,38.95
2022-12-17T05:31:25.303Z,38.97
2022-12-17T05:33:51.675Z,38.99
2022-12-17T05:36:18.011Z,38.96
2022-12-17T05:38:44.416Z,38.98
2022-12-17T05:41:10.760Z,39.00
2022-12-17T05:43:37.501Z,39.00
2022-12-17T05:46:03.562Z,38.97
2022-12-17T05:48:29.869Z,39.01
2022-12-17T05:50:56.212Z,38.99
2022-12-17T05:53:22.597Z,38.99
2022-12-17T05:55:48.943Z,39.00
2022-12-17T05:58:15.344Z,39.05
2022-12-17T06:00:41.684Z,39.01
2022-12-17T06:03:08.176Z,39.00
2022-12-17T06:05:34.415Z,39.07
2022-12-17T06:08:00.808Z,38.98
2022-12-17T06:10:27.160Z,39.04
2022-12-17T06:12:53.542Z,39.00
2022-12-17T06:15:19.884Z,38.94
2022-12-17T06:17:46.271Z,38.94
2022-12-17T06:20:12.627Z,38.85
2022-12-17T06:22:39.009Z,38.89
2022-12-17T06:25:05.356Z,38.92
2022-12-17T06:27:31.752Z,38.83
2022-12-17T06:29:58.131Z,38.80
2022-12-17T06:32:24.465Z,38.76
2022-12-17T06:34:50.865Z,38.71
2022-12-17T06:37:17.208Z,38.64
2022-12-17T06:39:43.593Z,38.67
2022-12-17T06:42:09.932Z,38.61
2022-12-17T06:44:36.313Z,38.65
2022-12-17T06:47:02.774Z,38.63
2022-12-17T06:49:29.046Z,38.57
2022-12-17T06:51:55.395Z,38.55
2022-12-17T06:54:21.780Z,38.53
2022-12-17T06:56:48.122Z,38.46
2022-12-17T06:59:14.510Z,38.53
2022-12-17T07:01:41.047Z,38.51
2022-12-17T07:04:07.248Z,38.52
2022-12-17T07:06:33.597Z,38.51
2022-12-17T07:09:00.014Z,38.48
2022-12-17T07:11:26.371Z,38.46
2022-12-17T07:13:52.741Z,38.45
2022-12-17T07:16:19.120Z,38.44
2022-12-17T07:18:46.463Z,38.46
2022-12-17T07:21:11.815Z,38.45
2022-12-17T07:23:38.839Z,38.40
2022-12-17T07:26:04.539Z,38.44
2022-12-17T07:28:30.924Z,38.43
2022-12-17T07:30:57.264Z,38.44
2022-12-17T07:33:23.654Z,38.48
2022-12-17T07:35:50.031Z,38.48
2022-12-17T07:38:16.719Z,38.60
2022-12-17T07:40:43.062Z,38.61
2022-12-17T07:43:09.443Z,38.62
2022-12-17T07:45:35.873Z,38.61
2022-12-17T07:48:02.231Z,38.70
2022-12-17T07:50:28.566Z,38.71
2022-12-17T07:52:54.952Z,38.78
2022-12-17T07:55:21.295Z,38.80
2022-12-17T07:57:47.980Z,38.82
2022-12-17T08:00:14.326Z,38.86
2022-12-17T08:02:40.828Z,38.81
2022-12-17T08:05:07.062Z,38.81
2022-12-17T08:07:33.511Z,38.85
2022-12-17T08:09:59.850Z,38.81
2022-12-17T08:12:26.242Z,38.88
2022-12-17T08:14:52.600Z,39.01
2022-12-17T08:17:18.979Z,39.04
2022-12-17T08:19:45.321Z,39.06
2022-12-17T08:22:11.710Z,39.13
2022-12-17T08:24:38.113Z,39.23
2022-12-17T08:27:04.498Z,39.27
2022-12-17T08:29:30.838Z,39.30
2022-12-17T08:31:58.885Z,39.36
2022-12-17T08:34:24.778Z,39.35
2022-12-17T08:36:49.966Z,39.41
2022-12-17T08:39:16.424Z,39.52
2022-12-17T08:41:42.804Z,39.52
2022-12-17T08:44:09.151Z,39.50
2022-12-17T08:46:35.655Z,39.56
2022-12-17T08:49:01.964Z,39.60
2022-12-17T08:51:28.368Z,39.64
2022-12-17T08:53:54.714Z,39.61
2022-12-17T08:56:21.096Z,39.66
2022-12-17T08:58:47.438Z,39.76
2022-12-17T09:01:13.920Z,39.76
2022-12-17T09:03:40.663Z,39.83
2022-12-17T09:06:06.560Z,39.86
2022-12-17T09:08:32.902Z,39.91
2022-12-17T09:10:59.284Z,40.01
2022-12-17T09:13:25.629Z,40.00
2022-12-17T09:15:52.030Z,39.98
2022-12-17T09:18:18.365Z,40.07
2022-12-17T09:20:44.761Z,40.13
2022-12-17T09:23:11.105Z,40.16
2022-12-17T09:25:37.501Z,40.23
2022-12-17T09:28:03.883Z,40.24
2022-12-17T09:30:30.326Z,40.27
2022-12-17T09:32:56.620Z,40.41
2022-12-17T09:35:23.002Z,40.36
2022-12-17T09:37:49.341Z,40.44
2022-12-17T09:40:15.772Z,40.54
2022-12-17T09:42:46.744Z,40.53
2022-12-17T09:45:08.526Z,40.57
2022-12-17T09:47:34.912Z,40.60
2022-12-17T09:50:01.294Z,40.64
2022-12-17T09:52:27.669Z,40.70
2022-12-17T09:54:59.317Z,40.82
2022-12-17T09:57:20.393Z,40.78
2022-12-17T09:59:46.782Z,40.80
2022-12-17T10:02:13.339Z,40.83
2022-12-17T10:04:39.522Z,40.80
2022-12-17T10:07:05.866Z,40.81
2022-12-17T10:09:32.243Z,40.97
2022-12-17T10:11:58.581Z,40.98
2022-12-17T10:14:24.994Z,41.01
2022-12-17T10:16:51.340Z,41.02
2022-12-17T10:19:17.734Z,41.05
2022-12-17T10:21:44.071Z,41.05
2022-12-17T10:24:15.438Z,41.06
2022-12-17T10:26:36.804Z,41.11
2022-12-17T10:29:03.193Z,41.19
2022-12-17T10:31:29.588Z,41.15
2022-12-17T10:33:55.916Z,41.14
2022-12-17T10:36:22.262Z,41.11
2022-12-17T10:38:48.683Z,41.06
2022-12-17T10:41:15.011Z,41.07
2022-12-17T10:43:43.040Z,41.04
2022-12-17T10:46:09.022Z,41.10
2022-12-17T10:48:34.115Z,41.13
2022-12-17T10:51:00.461Z,41.09
2022-12-17T10:53:26.853Z,41.09
2022-12-17T10:55:53.192Z,41.11
2022-12-17T10:58:19.573Z,41.10
2022-12-17T11:00:50.121Z,41.12
2022-12-17T11:03:12.399Z,41.12
2022-12-17T11:05:38.681Z,41.11
2022-12-17T11:08:05.074Z,41.04
2022-12-17T11:10:31.411Z,40.91
2022-12-17T11:12:57.823Z,40.71
2022-12-17T11:15:24.194Z,40.63
2022-12-17T11:17:50.579Z,40.70
2022-12-17T11:20:16.922Z,40.65
2022-12-17T11:22:43.303Z,40.94
2022-12-17T11:25:09.647Z,40.98
2022-12-17T11:27:36.045Z,40.93
2022-12-17T11:30:02.489Z,40.90
2022-12-17T11:32:28.871Z,40.74
2022-12-17T11:34:55.214Z,40.77
2022-12-17T11:37:21.596Z,40.51
2022-12-17T11:39:47.936Z,40.57
2022-12-17T11:42:14.336Z,40.44
2022-12-17T11:44:40.681Z,40.48
2022-12-17T11:47:07.072Z,40.39
2022-12-17T11:49:33.470Z,40.36
2022-12-17T11:51:59.881Z,40.51
2022-12-17T11:54:26.225Z,40.42
2022-12-17T11:56:52.613Z,40.48
2022-12-17T11:59:18.963Z,40.55
2022-12-17T12:01:45.397Z,40.63
2022-12-17T12:04:11.793Z,40.62
2022-12-17T12:06:38.108Z,40.64
2022-12-17T12:09:04.456Z,40.69
2022-12-17T12:11:31.968Z,40.78
2022-12-17T12:13:57.178Z,40.85
2022-12-17T12:16:23.652Z,40.82
2022-12-17T12:18:49.902Z,40.86
2022-12-17T12:21:16.287Z,40.84
2022-12-17T12:23:42.642Z,40.90
2022-12-17T12:26:09.019Z,40.98
2022-12-17T12:28:35.740Z,41.06
2022-12-17T12:31:01.759Z,41.19
2022-12-17T12:33:28.092Z,41.12
2022-12-17T12:35:54.478Z,41.04
2022-12-17T12:38:20.849Z,40.88
2022-12-17T12:40:47.252Z,41.04
2022-12-17T12:43:13.599Z,40.89
2022-12-17T12:45:40.043Z,41.05
2022-12-17T12:48:07.536Z,41.09
2022-12-17T12:50:32.726Z,41.22
2022-12-17T12:52:59.066Z,41.20
2022-12-17T12:55:25.459Z,41.41
2022-12-17T12:57:51.801Z,41.37
2022-12-17T13:00:18.214Z,41.49
2022-12-17T13:02:44.699Z,41.59
2022-12-17T13:05:10.939Z,41.60
2022-12-17T13:07:37.276Z,41.66
2022-12-17T13:10:03.671Z,41.75
2022-12-17T13:12:30.016Z,41.64
2022-12-17T13:14:56.424Z,41.79
2022-12-17T13:17:22.758Z,41.81
2022-12-17T13:19:49.158Z,41.81
2022-12-17T13:22:21.740Z,41.82
2022-12-17T13:24:41.902Z,41.84
2022-12-17T13:27:10.424Z,41.79
2022-12-17T13:29:36.849Z,41.91
2022-12-17T13:32:03.213Z,42.00
2022-12-17T13:34:29.541Z,42.00
2022-12-17T13:36:55.888Z,42.01
2022-12-17T13:39:22.271Z,42.11
2022-12-17T13:41:48.647Z,42.18
2022-12-17T13:44:15.028Z,42.13
2022-12-17T13:46:46.662Z,42.18
2022-12-17T13:49:07.754Z,42.24
2022-12-17T13:51:34.095Z,42.21
2022-12-17T13:54:00.487Z,42.28
2022-12-17T13:56:26.884Z,42.33
2022-12-17T13:58:53.247Z,42.32
2022-12-17T14:01:19.873Z,42.45
2022-12-17T14:06:12.365Z,42.34
2022-12-17T14:08:39.134Z,42.37
2022-12-17T14:11:06.716Z,42.37
2022-12-17T14:13:31.473Z,42.27
2022-12-17T14:15:57.824Z,42.31
2022-12-17T14:18:24.222Z,42.28
2022-12-17T14:20:51.774Z,42.17
2022-12-17T14:23:16.959Z,42.29
2022-12-17T14:25:43.299Z,42.25
2022-12-17T14:28:09.760Z,42.28
2022-12-17T14:30:36.140Z,42.31
2022-12-17T14:33:02.544Z,42.37
2022-12-17T14:35:28.939Z,42.34
2022-12-17T14:37:55.333Z,42.33
2022-12-17T14:40:21.679Z,42.36
2022-12-17T14:42:48.062Z,42.35
2022-12-17T14:45:14.408Z,42.41
2022-12-17T14:47:40.804Z,42.42
2022-12-17T14:50:07.144Z,42.52
2022-12-17T14:52:33.526Z,42.52
2022-12-17T14:54:59.867Z,42.52
2022-12-17T14:57:26.268Z,42.55
2022-12-17T14:59:52.621Z,42.62
2022-12-17T15:02:19.084Z,42.66
2022-12-17T15:04:45.341Z,42.65
2022-12-17T15:07:17.585Z,42.55
2022-12-17T15:09:38.070Z,42.47
2022-12-17T15:12:04.463Z,42.45
2022-12-17T15:14:30.819Z,42.40
2022-12-17T15:16:57.228Z,42.36
2022-12-17T15:19:23.538Z,42.33
2022-12-17T15:21:49.917Z,42.29
2022-12-17T15:24:16.262Z,42.24
2022-12-17T15:26:42.654Z,42.26
2022-12-17T15:29:09.001Z,42.25
2022-12-17T15:31:35.943Z,42.25
2022-12-17T15:34:01.727Z,42.19
2022-12-17T15:36:28.111Z,42.21
2022-12-17T15:38:54.461Z,42.24
2022-12-17T15:41:20.857Z,42.24
2022-12-17T15:43:47.305Z,42.24
2022-12-17T15:46:13.745Z,42.24
2022-12-17T15:48:44.806Z,42.22
2022-12-17T15:51:06.449Z,42.24
2022-12-17T15:53:32.791Z,42.21
2022-12-17T15:55:59.177Z,42.23
2022-12-17T15:58:25.538Z,42.21
2022-12-17T16:00:51.960Z,42.27
2022-12-17T16:03:18.335Z,42.22
2022-12-17T16:05:44.682Z,42.25
2022-12-17T16:08:11.024Z,42.26
2022-12-17T16:10:37.402Z,42.21
2022-12-17T16:13:03.744Z,42.24
2022-12-17T16:15:30.156Z,42.24
2022-12-17T16:17:56.470Z,42.25
2022-12-17T16:20:22.860Z,42.24
2022-12-17T16:22:49.208Z,42.27
2022-12-17T16:25:15.594Z,42.22
2022-12-17T16:27:41.936Z,42.21
2022-12-17T16:30:08.331Z,42.20
2022-12-17T16:32:36.690Z,42.22
2022-12-17T16:35:01.075Z,42.21
2022-12-17T16:37:27.421Z,42.27
2022-12-17T16:39:59.737Z,42.25
2022-12-17T16:42:20.161Z,42.28
2022-12-17T16:44:46.542Z,42.29
2022-12-17T16:47:12.917Z,42.27
2022-12-17T16:49:39.306Z,42.27
2022-12-17T16:52:05.648Z,42.28
2022-12-17T16:54:32.049Z,42.27
2022-12-17T16:56:58.444Z,42.28
2022-12-17T16:59:24.781Z,42.31
2022-12-17T17:01:51.242Z,42.30
2022-12-17T17:04:17.522Z,42.29
2022-12-17T17:06:43.920Z,42.33
2022-12-17T17:09:10.253Z,42.32
2022-12-17T17:11:36.633Z,42.35
2022-12-17T17:14:03.011Z,42.33
2022-12-17T17:16:29.437Z,42.34
2022-12-17T17:18:55.785Z,42.35
2022-12-17T17:21:22.167Z,42.34
2022-12-17T17:23:48.511Z,42.35
2022-12-17T17:26:14.931Z,42.37
2022-12-17T17:28:41.275Z,42.34
2022-12-17T17:31:07.728Z,42.35
2022-12-17T17:33:35.206Z,42.33
2022-12-17T17:36:04.002Z,42.35
2022-12-17T17:38:28.691Z,42.36
2022-12-17T17:40:53.123Z,42.37
2022-12-17T17:43:19.465Z,42.36
2022-12-17T17:45:45.845Z,42.38
2022-12-17T17:48:12.188Z,42.37
2022-12-17T17:50:38.630Z,42.36
2022-12-17T17:53:04.978Z,42.38
2022-12-17T17:55:31.367Z,42.39
2022-12-17T17:57:57.710Z,42.37
2022-12-17T18:00:24.131Z,42.37
2022-12-17T18:02:50.682Z,42.39
2022-12-17T18:05:16.887Z,42.36
2022-12-17T18:07:43.219Z,42.38
2022-12-17T18:10:10.555Z,42.36
2022-12-17T18:12:35.986Z,42.37
2022-12-17T18:15:18.701Z,42.38
2022-12-17T18:17:28.715Z,42.32
2022-12-17T18:19:55.098Z,42.35
2022-12-17T18:22:21.436Z,42.36
2022-12-17T18:24:47.827Z,42.36
2022-12-17T18:27:14.172Z,42.36
2022-12-17T18:29:40.553Z,42.38
2022-12-17T18:32:06.951Z,42.37
2022-12-17T18:34:33.302Z,42.37
2022-12-17T18:36:59.622Z,42.39
2022-12-17T18:39:26.010Z,42.37
2022-12-17T18:41:52.383Z,42.37
2022-12-17T18:44:18.767Z,42.42
2022-12-17T18:46:45.166Z,42.40
2022-12-17T18:49:11.534Z,42.40
2022-12-17T18:51:37.870Z,42.39
2022-12-17T18:54:04.265Z,42.42
2022-12-17T18:56:59.437Z,42.37
2022-12-17T18:58:56.996Z,42.43
2022-12-17T19:01:23.458Z,42.38
2022-12-17T19:03:49.724Z,42.39
2022-12-17T19:06:16.062Z,42.38
2022-12-17T19:08:42.450Z,42.40
2022-12-17T19:11:08.827Z,42.38
2022-12-17T19:13:35.227Z,42.43
2022-12-17T19:16:01.676Z,42.40
2022-12-17T19:18:27.991Z,42.40
2022-12-17T19:20:54.330Z,42.38
2022-12-17T19:23:20.714Z,42.40
2022-12-17T19:25:47.057Z,42.40
2022-12-17T19:28:13.526Z,42.41
2022-12-17T19:30:39.867Z,42.40
2022-12-17T19:33:06.265Z,42.41
2022-12-17T19:35:32.637Z,42.41
2022-12-17T19:37:59.019Z,42.40
2022-12-17T19:40:25.364Z,42.41
2022-12-17T19:42:51.757Z,42.40
2022-12-17T19:45:18.095Z,42.41
2022-12-17T19:47:44.480Z,42.40
2022-12-17T19:50:10.836Z,42.43
2022-12-17T19:52:37.216Z,42.47
2022-12-17T19:55:03.556Z,42.44
2022-12-17T19:57:29.947Z,42.42
2022-12-17T19:59:56.294Z,42.40
2022-12-17T20:02:23.544Z,42.40
2022-12-17T20:04:49.025Z,42.42
2022-12-17T20:07:15.400Z,42.39
2022-12-17T20:09:41.741Z,42.43
2022-12-17T20:12:08.140Z,42.42
2022-12-17T20:14:34.471Z,42.40
2022-12-17T20:17:00.895Z,42.38
2022-12-17T20:19:27.202Z,42.50
2022-12-17T20:21:53.592Z,42.41
2022-12-17T20:24:19.929Z,42.44
2022-12-17T20:26:46.349Z,42.41
2022-12-17T20:29:12.682Z,42.42
2022-12-17T20:31:39.166Z,42.42
2022-12-17T20:34:05.472Z,42.44
2022-12-17T20:36:31.860Z,42.41
2022-12-17T20:38:58.210Z,42.43
2022-12-17T20:41:24.600Z,42.45
2022-12-17T20:43:50.969Z,42.45
2022-12-17T20:46:17.431Z,42.44
2022-12-17T20:48:43.699Z,42.44
2022-12-17T20:51:10.104Z,42.49
2022-12-17T20:53:36.449Z,42.44
2022-12-17T20:56:02.834Z,42.44
2022-12-17T20:58:29.180Z,42.41
2022-12-17T21:00:55.600Z,42.44
2022-12-17T21:03:21.989Z,42.44
2022-12-17T21:05:48.317Z,42.45
2022-12-17T21:08:14.657Z,42.44
2022-12-17T21:10:41.055Z,42.44
2022-12-17T21:13:07.394Z,42.42
2022-12-17T21:15:33.782Z,42.44
2022-12-17T21:18:00.123Z,42.46
2022-12-17T21:20:26.514Z,42.43
2022-12-17T21:22:52.850Z,42.39
2022-12-17T21:25:19.244Z,42.36
2022-12-17T21:27:45.585Z,42.35
2022-12-17T21:30:13.487Z,42.32
2022-12-17T21:32:38.315Z,42.28
2022-12-17T21:35:04.699Z,42.26
2022-12-17T21:37:31.050Z,42.19
2022-12-17T21:39:59.907Z,42.17
2022-12-17T21:42:23.782Z,42.16
2022-12-17T21:44:50.165Z,42.14
2022-12-17T21:47:16.513Z,42.13
2022-12-17T21:49:42.897Z,42.10
2022-12-17T21:52:11.428Z,42.07
2022-12-17T21:54:37.846Z,42.06
2022-12-17T21:57:04.181Z,42.03
2022-12-17T21:59:30.571Z,42.00
2022-12-17T22:01:57.085Z,42.00
2022-12-17T22:04:23.432Z,41.98
2022-12-17T22:06:55.292Z,41.97
2022-12-17T22:09:29.819Z,41.97
2022-12-17T22:11:42.520Z,41.90
2022-12-17T22:14:11.597Z,41.90
2022-12-17T22:16:35.361Z,41.88
2022-12-17T22:19:01.670Z,41.83
2022-12-17T22:21:29.050Z,41.83
2022-12-17T22:23:55.487Z,41.83
2022-12-17T22:26:21.837Z,41.81
2022-12-17T22:28:48.219Z,41.75
2022-12-17T22:31:14.602Z,41.70
2022-12-17T22:34:06.334Z,41.66
2022-12-17T22:38:19.766Z,41.66
2022-12-17T22:41:51.888Z,41.65
2022-12-17T22:44:35.922Z,41.64
2022-12-17T22:44:44.909Z,41.59
2022-12-17T22:45:52.811Z,41.58
2022-12-17T22:48:19.171Z,41.58
2022-12-17T22:51:02.047Z,41.55
2022-12-17T22:53:11.915Z,41.51
2022-12-17T22:55:38.251Z,41.48
2022-12-17T22:58:04.638Z,41.44
2022-12-17T23:00:30.980Z,41.37
2022-12-17T23:02:57.523Z,41.37
2022-12-17T23:05:23.716Z,41.35
2022-12-17T23:07:50.105Z,41.32
2022-12-17T23:10:16.488Z,41.32
2022-12-17T23:12:42.875Z,41.29
2022-12-17T23:15:09.222Z,41.25
2022-12-17T23:17:35.638Z,41.24
2022-12-17T23:20:01.950Z,41.18
2022-12-17T23:22:28.347Z,41.15
2022-12-17T23:24:54.690Z,41.10
2022-12-17T23:27:21.110Z,41.10
2022-12-17T23:29:47.450Z,41.02
2022-12-17T23:32:13.837Z,41.02
2022-12-17T23:34:40.180Z,41.03
2022-12-17T23:37:06.563Z,41.02
2022-12-17T23:39:33.050Z,40.96
2022-12-17T23:41:59.305Z,40.94
2022-12-17T23:44:25.652Z,40.93
2022-12-17T23:46:52.078Z,40.88
2022-12-17T23:49:18.375Z,40.87
2022-12-17T23:51:44.768Z,40.92
2022-12-17T23:54:11.120Z,40.90
2022-12-17T23:56:40.802Z,40.89
2022-12-17T23:59:04.912Z,40.94
